sensor_id;sensor_type;location;lat;lon;timestamp;P1;durP1;ratioP1;P2;durP2;ratioP2
27706;SDS011;36332;51.384;0.040;2022-10-28T00:01:14;39.42;;;13.45;;
27706;SDS011;36332;51.384;0.040;2022-10-28T00:03:47;32.92;;;12.20;;
27706;SDS011;36332;51.384;0.040;2022-10-28T00:06:24;25.80;;;12.25;;
27706;SDS011;36332;51.384;0.040;2022-10-28T00:08:53;26.48;;;12.20;;
27706;SDS011;36332;51.384;0.040;2022-10-28T00:11:26;28.48;;;13.48;;
27706;SDS011;36332;51.384;0.040;2022-10-28T00:13:56;30.80;;;11.95;;
27706;SDS011;36332;51.384;0.040;2022-10-28T00:16:26;31.75;;;12.82;;
27706;SDS011;36332;51.384;0.040;2022-10-28T00:18:56;26.70;;;12.27;;
27706;SDS011;36332;51.384;0.040;2022-10-28T00:21:26;28.50;;;11.32;;
27706;SDS011;36332;51.384;0.040;2022-10-28T00:23:56;28.63;;;11.40;;
27706;SDS011;36332;51.384;0.040;2022-10-28T00:26:26;27.13;;;11.45;;
27706;SDS011;36332;51.384;0.040;2022-10-28T00:28:59;29.05;;;12.95;;
27706;SDS011;36332;51.384;0.040;2022-10-28T00:31:29;31.95;;;11.70;;
27706;SDS011;36332;51.384;0.040;2022-10-28T00:33:58;21.15;;;11.73;;
27706;SDS011;36332;51.384;0.040;2022-10-28T00:36:29;30.75;;;12.02;;
27706;SDS011;36332;51.384;0.040;2022-10-28T00:38:59;26.00;;;11.65;;
27706;SDS011;36332;51.384;0.040;2022-10-28T00:41:31;29.23;;;12.50;;
27706;SDS011;36332;51.384;0.040;2022-10-28T00:44:00;25.38;;;11.20;;
27706;SDS011;36332;51.384;0.040;2022-10-28T00:46:50;29.60;;;12.13;;
27706;SDS011;36332;51.384;0.040;2022-10-28T00:51:50;31.58;;;11.88;;
27706;SDS011;36332;51.384;0.040;2022-10-28T00:54:24;37.78;;;12.18;;
27706;SDS011;36332;51.384;0.040;2022-10-28T00:56:54;36.78;;;12.38;;
27706;SDS011;36332;51.384;0.040;2022-10-28T00:59:25;32.72;;;10.98;;
27706;SDS011;36332;51.384;0.040;2022-10-28T01:01:55;26.75;;;10.90;;
27706;SDS011;36332;51.384;0.040;2022-10-28T01:04:23;36.47;;;11.98;;
27706;SDS011;36332;51.384;0.040;2022-10-28T01:06:51;35.83;;;10.55;;
27706;SDS011;36332;51.384;0.040;2022-10-28T01:09:19;48.03;;;13.52;;
27706;SDS011;36332;51.384;0.040;2022-10-28T01:11:59;33.72;;;11.68;;
27706;SDS011;36332;51.384;0.040;2022-10-28T01:14:53;30.67;;;12.55;;
27706;SDS011;36332;51.384;0.040;2022-10-28T01:17:39;30.98;;;11.25;;
27706;SDS011;36332;51.384;0.040;2022-10-28T01:23:32;31.85;;;12.27;;
27706;SDS011;36332;51.384;0.040;2022-10-28T01:39:33;35.28;;;12.73;;
27706;SDS011;36332;51.384;0.040;2022-10-28T01:42:31;32.85;;;13.57;;
27706;SDS011;36332;51.384;0.040;2022-10-28T01:45:02;28.13;;;12.82;;
27706;SDS011;36332;51.384;0.040;2022-10-28T01:47:36;33.80;;;12.93;;
27706;SDS011;36332;51.384;0.040;2022-10-28T01:50:34;38.13;;;13.88;;
27706;SDS011;36332;51.384;0.040;2022-10-28T01:53:05;38.33;;;13.63;;
27706;SDS011;36332;51.384;0.040;2022-10-28T01:55:37;34.83;;;14.30;;
27706;SDS011;36332;51.384;0.040;2022-10-28T01:58:08;39.15;;;14.25;;
27706;SDS011;36332;51.384;0.040;2022-10-28T02:00:38;39.72;;;15.10;;
27706;SDS011;36332;51.384;0.040;2022-10-28T02:03:06;30.90;;;13.73;;
27706;SDS011;36332;51.384;0.040;2022-10-28T02:05:45;34.80;;;15.20;;
27706;SDS011;36332;51.384;0.040;2022-10-28T02:16:42;33.53;;;15.02;;
27706;SDS011;36332;51.384;0.040;2022-10-28T02:22:04;31.77;;;13.77;;
27706;SDS011;36332;51.384;0.040;2022-10-28T02:30:43;37.65;;;15.73;;
27706;SDS011;36332;51.384;0.040;2022-10-28T02:33:24;39.72;;;15.68;;
27706;SDS011;36332;51.384;0.040;2022-10-28T02:36:09;42.72;;;17.63;;
27706;SDS011;36332;51.384;0.040;2022-10-28T02:38:44;33.60;;;14.90;;
27706;SDS011;36332;51.384;0.040;2022-10-28T02:41:36;35.45;;;15.68;;
27706;SDS011;36332;51.384;0.040;2022-10-28T02:44:09;44.85;;;16.25;;
27706;SDS011;36332;51.384;0.040;2022-10-28T02:46:41;42.85;;;16.00;;
27706;SDS011;36332;51.384;0.040;2022-10-28T02:49:12;46.42;;;15.48;;
27706;SDS011;36332;51.384;0.040;2022-10-28T02:51:45;39.03;;;15.50;;
27706;SDS011;36332;51.384;0.040;2022-10-28T02:54:20;35.35;;;16.48;;
27706;SDS011;36332;51.384;0.040;2022-10-28T02:56:54;31.08;;;14.45;;
27706;SDS011;36332;51.384;0.040;2022-10-28T02:59:32;39.97;;;15.95;;
27706;SDS011;36332;51.384;0.040;2022-10-28T03:01:59;38.38;;;15.80;;
27706;SDS011;36332;51.384;0.040;2022-10-28T03:04:27;45.63;;;16.02;;
27706;SDS011;36332;51.384;0.040;2022-10-28T03:06:55;34.08;;;15.07;;
27706;SDS011;36332;51.384;0.040;2022-10-28T03:09:23;48.15;;;15.77;;
27706;SDS011;36332;51.384;0.040;2022-10-28T03:17:41;37.45;;;17.25;;
27706;SDS011;36332;51.384;0.040;2022-10-28T03:20:08;39.90;;;16.40;;
27706;SDS011;36332;51.384;0.040;2022-10-28T03:22:36;44.05;;;15.40;;
27706;SDS011;36332;51.384;0.040;2022-10-28T03:25:04;40.47;;;16.75;;
27706;SDS011;36332;51.384;0.040;2022-10-28T03:27:32;47.53;;;16.17;;
27706;SDS011;36332;51.384;0.040;2022-10-28T03:30:00;39.38;;;16.27;;
27706;SDS011;36332;51.384;0.040;2022-10-28T03:32:28;38.53;;;17.00;;
27706;SDS011;36332;51.384;0.040;2022-10-28T03:34:56;38.95;;;15.80;;
27706;SDS011;36332;51.384;0.040;2022-10-28T03:37:23;41.35;;;16.95;;
27706;SDS011;36332;51.384;0.040;2022-10-28T03:39:51;42.20;;;16.67;;
27706;SDS011;36332;51.384;0.040;2022-10-28T03:42:20;36.33;;;15.60;;
27706;SDS011;36332;51.384;0.040;2022-10-28T03:44:47;38.45;;;14.07;;
27706;SDS011;36332;51.384;0.040;2022-10-28T03:47:15;39.85;;;15.55;;
27706;SDS011;36332;51.384;0.040;2022-10-28T03:49:43;40.80;;;17.23;;
27706;SDS011;36332;51.384;0.040;2022-10-28T03:52:11;38.38;;;15.43;;
27706;SDS011;36332;51.384;0.040;2022-10-28T03:54:39;39.38;;;15.07;;
27706;SDS011;36332;51.384;0.040;2022-10-28T03:57:07;45.40;;;16.15;;
27706;SDS011;36332;51.384;0.040;2022-10-28T03:59:34;46.97;;;16.48;;
27706;SDS011;36332;51.384;0.040;2022-10-28T04:02:02;51.22;;;18.27;;
27706;SDS011;36332;51.384;0.040;2022-10-28T04:04:30;33.83;;;15.70;;
27706;SDS011;36332;51.384;0.040;2022-10-28T04:06:58;38.38;;;14.95;;
27706;SDS011;36332;51.384;0.040;2022-10-28T04:09:25;44.05;;;15.80;;
27706;SDS011;36332;51.384;0.040;2022-10-28T04:11:53;43.95;;;14.80;;
27706;SDS011;36332;51.384;0.040;2022-10-28T04:14:21;49.42;;;15.38;;
27706;SDS011;36332;51.384;0.040;2022-10-28T04:16:49;40.00;;;14.95;;
27706;SDS011;36332;51.384;0.040;2022-10-28T04:19:17;39.75;;;14.90;;
27706;SDS011;36332;51.384;0.040;2022-10-28T04:21:45;37.22;;;14.10;;
27706;SDS011;36332;51.384;0.040;2022-10-28T04:24:13;40.05;;;13.65;;
27706;SDS011;36332;51.384;0.040;2022-10-28T04:26:41;43.33;;;13.77;;
27706;SDS011;36332;51.384;0.040;2022-10-28T04:29:10;37.22;;;13.82;;
27706;SDS011;36332;51.384;0.040;2022-10-28T04:31:39;31.80;;;13.25;;
27706;SDS011;36332;51.384;0.040;2022-10-28T04:34:07;37.40;;;15.10;;
27706;SDS011;36332;51.384;0.040;2022-10-28T04:36:36;42.15;;;13.13;;
27706;SDS011;36332;51.384;0.040;2022-10-28T04:39:04;37.83;;;14.45;;
27706;SDS011;36332;51.384;0.040;2022-10-28T04:41:32;47.50;;;13.80;;
27706;SDS011;36332;51.384;0.040;2022-10-28T04:44:01;34.13;;;14.70;;
27706;SDS011;36332;51.384;0.040;2022-10-28T04:46:29;32.50;;;14.27;;
27706;SDS011;36332;51.384;0.040;2022-10-28T04:48:56;41.42;;;15.27;;
27706;SDS011;36332;51.384;0.040;2022-10-28T04:51:24;42.33;;;15.63;;
27706;SDS011;36332;51.384;0.040;2022-10-28T04:53:52;37.88;;;15.05;;
27706;SDS011;36332;51.384;0.040;2022-10-28T04:56:20;34.13;;;14.45;;
27706;SDS011;36332;51.384;0.040;2022-10-28T04:58:48;53.83;;;16.20;;
27706;SDS011;36332;51.384;0.040;2022-10-28T05:01:16;36.20;;;15.23;;
27706;SDS011;36332;51.384;0.040;2022-10-28T05:03:44;35.60;;;13.73;;
27706;SDS011;36332;51.384;0.040;2022-10-28T05:06:12;42.75;;;15.55;;
27706;SDS011;36332;51.384;0.040;2022-10-28T05:08:40;36.78;;;14.88;;
27706;SDS011;36332;51.384;0.040;2022-10-28T05:11:08;43.67;;;15.68;;
27706;SDS011;36332;51.384;0.040;2022-10-28T05:13:36;34.42;;;13.77;;
27706;SDS011;36332;51.384;0.040;2022-10-28T05:16:03;41.28;;;14.18;;
27706;SDS011;36332;51.384;0.040;2022-10-28T05:18:31;32.97;;;13.98;;
27706;SDS011;36332;51.384;0.040;2022-10-28T05:20:59;40.42;;;14.15;;
27706;SDS011;36332;51.384;0.040;2022-10-28T05:23:27;42.80;;;13.55;;
27706;SDS011;36332;51.384;0.040;2022-10-28T05:25:57;35.78;;;12.65;;
27706;SDS011;36332;51.384;0.040;2022-10-28T05:28:25;31.15;;;12.18;;
27706;SDS011;36332;51.384;0.040;2022-10-28T05:30:53;48.67;;;13.10;;
27706;SDS011;36332;51.384;0.040;2022-10-28T05:33:21;32.65;;;12.55;;
27706;SDS011;36332;51.384;0.040;2022-10-28T05:35:49;28.92;;;11.45;;
27706;SDS011;36332;51.384;0.040;2022-10-28T05:38:17;43.75;;;11.02;;
27706;SDS011;36332;51.384;0.040;2022-10-28T05:40:45;27.33;;;10.25;;
27706;SDS011;36332;51.384;0.040;2022-10-28T05:43:13;35.17;;;11.15;;
27706;SDS011;36332;51.384;0.040;2022-10-28T05:45:41;31.10;;;9.88;;
27706;SDS011;36332;51.384;0.040;2022-10-28T05:48:09;36.80;;;11.35;;
27706;SDS011;36332;51.384;0.040;2022-10-28T05:50:37;33.85;;;10.85;;
27706;SDS011;36332;51.384;0.040;2022-10-28T05:53:05;30.60;;;9.77;;
27706;SDS011;36332;51.384;0.040;2022-10-28T05:55:34;34.45;;;10.80;;
27706;SDS011;36332;51.384;0.040;2022-10-28T05:58:02;37.35;;;10.93;;
27706;SDS011;36332;51.384;0.040;2022-10-28T06:00:30;29.70;;;9.43;;
27706;SDS011;36332;51.384;0.040;2022-10-28T06:03:03;42.30;;;9.93;;
27706;SDS011;36332;51.384;0.040;2022-10-28T06:05:36;34.55;;;9.93;;
27706;SDS011;36332;51.384;0.040;2022-10-28T06:08:04;31.17;;;10.13;;
27706;SDS011;36332;51.384;0.040;2022-10-28T06:10:32;31.08;;;9.50;;
27706;SDS011;36332;51.384;0.040;2022-10-28T06:13:00;36.70;;;10.90;;
27706;SDS011;36332;51.384;0.040;2022-10-28T06:15:29;30.77;;;9.63;;
27706;SDS011;36332;51.384;0.040;2022-10-28T06:17:57;44.78;;;11.02;;
27706;SDS011;36332;51.384;0.040;2022-10-28T06:20:25;33.67;;;9.27;;
27706;SDS011;36332;51.384;0.040;2022-10-28T06:22:53;41.80;;;11.13;;
27706;SDS011;36332;51.384;0.040;2022-10-28T06:25:24;37.85;;;12.27;;
27706;SDS011;36332;51.384;0.040;2022-10-28T06:27:53;27.40;;;10.30;;
27706;SDS011;36332;51.384;0.040;2022-10-28T06:30:23;28.67;;;10.35;;
27706;SDS011;36332;51.384;0.040;2022-10-28T06:32:56;33.83;;;8.57;;
27706;SDS011;36332;51.384;0.040;2022-10-28T06:35:24;31.73;;;9.32;;
27706;SDS011;36332;51.384;0.040;2022-10-28T06:37:53;24.00;;;9.57;;
27706;SDS011;36332;51.384;0.040;2022-10-28T06:40:23;33.50;;;10.65;;
27706;SDS011;36332;51.384;0.040;2022-10-28T06:42:59;25.90;;;9.63;;
27706;SDS011;36332;51.384;0.040;2022-10-28T06:45:30;26.70;;;9.63;;
27706;SDS011;36332;51.384;0.040;2022-10-28T06:48:00;38.47;;;11.52;;
27706;SDS011;36332;51.384;0.040;2022-10-28T06:50:31;31.85;;;10.60;;
27706;SDS011;36332;51.384;0.040;2022-10-28T06:53:00;37.05;;;9.93;;
27706;SDS011;36332;51.384;0.040;2022-10-28T06:55:28;45.25;;;9.18;;
27706;SDS011;36332;51.384;0.040;2022-10-28T06:58:00;25.35;;;9.00;;
27706;SDS011;36332;51.384;0.040;2022-10-28T07:00:29;26.45;;;7.53;;
27706;SDS011;36332;51.384;0.040;2022-10-28T07:03:01;32.03;;;8.77;;
27706;SDS011;36332;51.384;0.040;2022-10-28T07:05:30;31.00;;;9.40;;
27706;SDS011;36332;51.384;0.040;2022-10-28T07:07:59;34.58;;;8.38;;
27706;SDS011;36332;51.384;0.040;2022-10-28T07:10:27;32.22;;;8.57;;
27706;SDS011;36332;51.384;0.040;2022-10-28T07:12:56;29.83;;;7.53;;
27706;SDS011;36332;51.384;0.040;2022-10-28T07:15:24;34.25;;;7.65;;
27706;SDS011;36332;51.384;0.040;2022-10-28T07:17:56;35.75;;;8.48;;
27706;SDS011;36332;51.384;0.040;2022-10-28T07:20:25;33.60;;;8.98;;
27706;SDS011;36332;51.384;0.040;2022-10-28T07:22:56;29.38;;;8.30;;
27706;SDS011;36332;51.384;0.040;2022-10-28T07:25:29;39.72;;;8.13;;
27706;SDS011;36332;51.384;0.040;2022-10-28T07:27:58;42.75;;;8.85;;
27706;SDS011;36332;51.384;0.040;2022-10-28T07:30:27;41.40;;;8.93;;
27706;SDS011;36332;51.384;0.040;2022-10-28T07:32:55;34.17;;;9.57;;
27706;SDS011;36332;51.384;0.040;2022-10-28T07:35:27;31.02;;;9.45;;
27706;SDS011;36332;51.384;0.040;2022-10-28T07:37:54;23.92;;;7.55;;
27706;SDS011;36332;51.384;0.040;2022-10-28T07:40:23;30.08;;;8.50;;
27706;SDS011;36332;51.384;0.040;2022-10-28T07:42:52;30.48;;;7.32;;
27706;SDS011;36332;51.384;0.040;2022-10-28T07:45:21;26.88;;;8.65;;
27706;SDS011;36332;51.384;0.040;2022-10-28T07:47:49;30.20;;;8.48;;
27706;SDS011;36332;51.384;0.040;2022-10-28T07:50:17;41.65;;;9.13;;
27706;SDS011;36332;51.384;0.040;2022-10-28T07:52:45;25.60;;;8.70;;
27706;SDS011;36332;51.384;0.040;2022-10-28T07:55:12;29.02;;;8.52;;
27706;SDS011;36332;51.384;0.040;2022-10-28T07:57:40;34.58;;;11.27;;
27706;SDS011;36332;51.384;0.040;2022-10-28T08:00:09;40.05;;;11.57;;
27706;SDS011;36332;51.384;0.040;2022-10-28T08:02:37;40.80;;;11.65;;
27706;SDS011;36332;51.384;0.040;2022-10-28T08:05:08;36.28;;;10.00;;
27706;SDS011;36332;51.384;0.040;2022-10-28T08:07:36;31.95;;;10.40;;
27706;SDS011;36332;51.384;0.040;2022-10-28T08:10:05;29.85;;;11.13;;
27706;SDS011;36332;51.384;0.040;2022-10-28T08:12:33;42.50;;;10.38;;
27706;SDS011;36332;51.384;0.040;2022-10-28T08:15:01;33.92;;;10.02;;
27706;SDS011;36332;51.384;0.040;2022-10-28T08:17:30;35.72;;;11.57;;
27706;SDS011;36332;51.384;0.040;2022-10-28T08:19:57;36.50;;;12.68;;
27706;SDS011;36332;51.384;0.040;2022-10-28T08:22:25;33.10;;;13.00;;
27706;SDS011;36332;51.384;0.040;2022-10-28T08:24:53;45.97;;;14.30;;
27706;SDS011;36332;51.384;0.040;2022-10-28T08:27:21;38.92;;;12.07;;
27706;SDS011;36332;51.384;0.040;2022-10-28T08:29:49;32.80;;;13.27;;
27706;SDS011;36332;51.384;0.040;2022-10-28T08:32:19;38.55;;;11.50;;
27706;SDS011;36332;51.384;0.040;2022-10-28T08:34:46;37.45;;;12.05;;
27706;SDS011;36332;51.384;0.040;2022-10-28T08:37:14;37.90;;;10.68;;
27706;SDS011;36332;51.384;0.040;2022-10-28T08:39:42;45.05;;;11.63;;
27706;SDS011;36332;51.384;0.040;2022-10-28T08:50:59;35.33;;;11.70;;
27706;SDS011;36332;51.384;0.040;2022-10-28T08:53:29;37.05;;;11.15;;
27706;SDS011;36332;51.384;0.040;2022-10-28T08:56:11;38.97;;;11.45;;
27706;SDS011;36332;51.384;0.040;2022-10-28T08:58:42;39.30;;;10.38;;
27706;SDS011;36332;51.384;0.040;2022-10-28T09:01:13;29.30;;;9.13;;
27706;SDS011;36332;51.384;0.040;2022-10-28T09:03:46;28.05;;;8.25;;
27706;SDS011;36332;51.384;0.040;2022-10-28T09:06:17;38.85;;;10.38;;
27706;SDS011;36332;51.384;0.040;2022-10-28T09:08:45;34.33;;;10.43;;
27706;SDS011;36332;51.384;0.040;2022-10-28T09:14:07;45.38;;;10.13;;
27706;SDS011;36332;51.384;0.040;2022-10-28T09:19:50;36.03;;;8.80;;
27706;SDS011;36332;51.384;0.040;2022-10-28T09:25:38;33.45;;;8.18;;
27706;SDS011;36332;51.384;0.040;2022-10-28T09:36:27;22.90;;;4.68;;
27706;SDS011;36332;51.384;0.040;2022-10-28T09:38:59;23.90;;;4.25;;
27706;SDS011;36332;51.384;0.040;2022-10-28T09:41:33;23.67;;;5.68;;
27706;SDS011;36332;51.384;0.040;2022-10-28T09:44:17;20.52;;;5.72;;
27706;SDS011;36332;51.384;0.040;2022-10-28T09:46:45;14.38;;;3.83;;
27706;SDS011;36332;51.384;0.040;2022-10-28T09:49:18;22.98;;;5.07;;
27706;SDS011;36332;51.384;0.040;2022-10-28T09:52:10;18.08;;;4.07;;
27706;SDS011;36332;51.384;0.040;2022-10-28T09:54:45;19.75;;;4.88;;
27706;SDS011;36332;51.384;0.040;2022-10-28T09:57:16;13.55;;;3.50;;
27706;SDS011;36332;51.384;0.040;2022-10-28T09:59:44;13.27;;;2.90;;
27706;SDS011;36332;51.384;0.040;2022-10-28T10:02:23;6.78;;;2.58;;
27706;SDS011;36332;51.384;0.040;2022-10-28T10:04:57;14.00;;;2.30;;
27706;SDS011;36332;51.384;0.040;2022-10-28T10:12:58;12.27;;;1.95;;
27706;SDS011;36332;51.384;0.040;2022-10-28T10:15:33;8.70;;;2.25;;
27706;SDS011;36332;51.384;0.040;2022-10-28T10:18:11;6.85;;;1.45;;
27706;SDS011;36332;51.384;0.040;2022-10-28T10:25:58;10.10;;;2.13;;
27706;SDS011;36332;51.384;0.040;2022-10-28T10:28:36;10.30;;;2.72;;
27706;SDS011;36332;51.384;0.040;2022-10-28T10:31:26;10.18;;;1.60;;
27706;SDS011;36332;51.384;0.040;2022-10-28T10:33:55;12.10;;;1.88;;
27706;SDS011;36332;51.384;0.040;2022-10-28T10:36:25;6.60;;;1.48;;
27706;SDS011;36332;51.384;0.040;2022-10-28T10:38:55;17.88;;;2.90;;
27706;SDS011;36332;51.384;0.040;2022-10-28T10:41:43;6.88;;;2.42;;
27706;SDS011;36332;51.384;0.040;2022-10-28T10:44:31;14.40;;;3.10;;
27706;SDS011;36332;51.384;0.040;2022-10-28T10:49:32;13.80;;;2.72;;
27706;SDS011;36332;51.384;0.040;2022-10-28T10:52:02;13.18;;;2.03;;
27706;SDS011;36332;51.384;0.040;2022-10-28T10:54:33;14.48;;;2.10;;
27706;SDS011;36332;51.384;0.040;2022-10-28T10:57:21;11.85;;;2.47;;
27706;SDS011;36332;51.384;0.040;2022-10-28T10:59:51;15.85;;;3.22;;
27706;SDS011;36332;51.384;0.040;2022-10-28T11:04:49;10.35;;;1.92;;
27706;SDS011;36332;51.384;0.040;2022-10-28T11:07:18;9.90;;;2.38;;
27706;SDS011;36332;51.384;0.040;2022-10-28T11:09:46;13.10;;;2.05;;
27706;SDS011;36332;51.384;0.040;2022-10-28T11:12:23;8.80;;;1.98;;
27706;SDS011;36332;51.384;0.040;2022-10-28T11:14:57;12.27;;;1.77;;
27706;SDS011;36332;51.384;0.040;2022-10-28T11:17:30;14.48;;;2.20;;
27706;SDS011;36332;51.384;0.040;2022-10-28T11:25:45;11.00;;;2.10;;
27706;SDS011;36332;51.384;0.040;2022-10-28T11:36:06;9.15;;;2.20;;
27706;SDS011;36332;51.384;0.040;2022-10-28T11:44:04;12.40;;;2.45;;
27706;SDS011;36332;51.384;0.040;2022-10-28T11:55:20;11.27;;;2.28;;
27706;SDS011;36332;51.384;0.040;2022-10-28T12:00:36;12.55;;;2.47;;
27706;SDS011;36332;51.384;0.040;2022-10-28T12:06:18;10.05;;;1.80;;
27706;SDS011;36332;51.384;0.040;2022-10-28T12:17:09;20.40;;;2.58;;
27706;SDS011;36332;51.384;0.040;2022-10-28T12:19:51;29.60;;;4.97;;
27706;SDS011;36332;51.384;0.040;2022-10-28T12:22:32;17.73;;;3.15;;
27706;SDS011;36332;51.384;0.040;2022-10-28T12:25:13;19.33;;;3.03;;
27706;SDS011;36332;51.384;0.040;2022-10-28T12:27:45;16.67;;;3.60;;
27706;SDS011;36332;51.384;0.040;2022-10-28T12:30:18;9.57;;;2.20;;
27706;SDS011;36332;51.384;0.040;2022-10-28T12:32:53;15.48;;;2.40;;
27706;SDS011;36332;51.384;0.040;2022-10-28T12:35:30;18.13;;;2.67;;
27706;SDS011;36332;51.384;0.040;2022-10-28T12:41:06;12.35;;;2.92;;
27706;SDS011;36332;51.384;0.040;2022-10-28T12:46:05;18.02;;;2.85;;
27706;SDS011;36332;51.384;0.040;2022-10-28T12:48:53;17.30;;;2.47;;
27706;SDS011;36332;51.384;0.040;2022-10-28T12:51:26;16.08;;;3.00;;
27706;SDS011;36332;51.384;0.040;2022-10-28T12:54:03;14.00;;;2.50;;
27706;SDS011;36332;51.384;0.040;2022-10-28T12:57:14;11.55;;;3.40;;
27706;SDS011;36332;51.384;0.040;2022-10-28T13:02:47;18.38;;;2.42;;
27706;SDS011;36332;51.384;0.040;2022-10-28T13:05:26;19.92;;;2.40;;
27706;SDS011;36332;51.384;0.040;2022-10-28T13:10:38;14.93;;;2.45;;
27706;SDS011;36332;51.384;0.040;2022-10-28T13:19:15;14.18;;;2.70;;
27706;SDS011;36332;51.384;0.040;2022-10-28T13:24:37;9.45;;;2.20;;
27706;SDS011;36332;51.384;0.040;2022-10-28T13:27:19;8.85;;;2.47;;
27706;SDS011;36332;51.384;0.040;2022-10-28T13:29:49;10.98;;;2.20;;
27706;SDS011;36332;51.384;0.040;2022-10-28T13:32:30;10.63;;;2.25;;
27706;SDS011;36332;51.384;0.040;2022-10-28T13:35:11;11.70;;;2.45;;
27706;SDS011;36332;51.384;0.040;2022-10-28T13:37:46;14.32;;;2.42;;
27706;SDS011;36332;51.384;0.040;2022-10-28T13:40:20;12.82;;;2.83;;
27706;SDS011;36332;51.384;0.040;2022-10-28T13:42:57;23.45;;;3.42;;
27706;SDS011;36332;51.384;0.040;2022-10-28T13:48:31;12.07;;;2.70;;
27706;SDS011;36332;51.384;0.040;2022-10-28T14:04:31;12.68;;;2.13;;
27706;SDS011;36332;51.384;0.040;2022-10-28T14:09:38;12.38;;;2.38;;
27706;SDS011;36332;51.384;0.040;2022-10-28T14:12:12;9.07;;;2.63;;
27706;SDS011;36332;51.384;0.040;2022-10-28T14:14:52;9.40;;;1.92;;
27706;SDS011;36332;51.384;0.040;2022-10-28T14:20:06;11.73;;;3.08;;
27706;SDS011;36332;51.384;0.040;2022-10-28T14:22:55;11.63;;;2.10;;
27706;SDS011;36332;51.384;0.040;2022-10-28T14:25:58;8.45;;;1.92;;
27706;SDS011;36332;51.384;0.040;2022-10-28T14:31:31;14.73;;;2.30;;
27706;SDS011;36332;51.384;0.040;2022-10-28T14:39:37;17.75;;;2.80;;
27706;SDS011;36332;51.384;0.040;2022-10-28T14:50:55;8.98;;;2.28;;
27706;SDS011;36332;51.384;0.040;2022-10-28T14:53:28;14.57;;;3.10;;
27706;SDS011;36332;51.384;0.040;2022-10-28T14:56:00;16.42;;;4.07;;
27706;SDS011;36332;51.384;0.040;2022-10-28T14:58:41;12.85;;;3.25;;
27706;SDS011;36332;51.384;0.040;2022-10-28T15:03:45;11.95;;;3.47;;
27706;SDS011;36332;51.384;0.040;2022-10-28T15:06:28;16.30;;;3.00;;
27706;SDS011;36332;51.384;0.040;2022-10-28T15:09:15;14.88;;;3.53;;
27706;SDS011;36332;51.384;0.040;2022-10-28T15:11:55;11.32;;;3.30;;
27706;SDS011;36332;51.384;0.040;2022-10-28T15:14:34;13.45;;;2.97;;
27706;SDS011;36332;51.384;0.040;2022-10-28T15:17:18;11.95;;;3.20;;
27706;SDS011;36332;51.384;0.040;2022-10-28T15:20:09;13.88;;;3.60;;
27706;SDS011;36332;51.384;0.040;2022-10-28T15:22:51;13.82;;;2.90;;
27706;SDS011;36332;51.384;0.040;2022-10-28T15:25:20;15.80;;;3.60;;
27706;SDS011;36332;51.384;0.040;2022-10-28T15:27:51;14.15;;;3.00;;
27706;SDS011;36332;51.384;0.040;2022-10-28T15:30:21;17.58;;;3.33;;
27706;SDS011;36332;51.384;0.040;2022-10-28T15:32:54;16.10;;;3.05;;
27706;SDS011;36332;51.384;0.040;2022-10-28T15:35:45;18.05;;;4.18;;
27706;SDS011;36332;51.384;0.040;2022-10-28T15:40:50;15.80;;;3.60;;
27706;SDS011;36332;51.384;0.040;2022-10-28T15:43:23;18.92;;;2.85;;
27706;SDS011;36332;51.384;0.040;2022-10-28T15:46:13;15.57;;;3.38;;
27706;SDS011;36332;51.384;0.040;2022-10-28T15:48:42;24.48;;;3.88;;
27706;SDS011;36332;51.384;0.040;2022-10-28T15:51:13;14.77;;;2.78;;
27706;SDS011;36332;51.384;0.040;2022-10-28T15:54:25;19.33;;;4.43;;
27706;SDS011;36332;51.384;0.040;2022-10-28T15:56:51;15.68;;;3.70;;
27706;SDS011;36332;51.384;0.040;2022-10-28T15:59:22;18.50;;;3.85;;
27706;SDS011;36332;51.384;0.040;2022-10-28T16:01:51;23.85;;;4.30;;
27706;SDS011;36332;51.384;0.040;2022-10-28T16:06:53;19.92;;;3.63;;
27706;SDS011;36332;51.384;0.040;2022-10-28T16:09:27;25.00;;;5.20;;
27706;SDS011;36332;51.384;0.040;2022-10-28T16:11:56;18.52;;;4.70;;
27706;SDS011;36332;51.384;0.040;2022-10-28T16:17:05;24.98;;;4.70;;
27706;SDS011;36332;51.384;0.040;2022-10-28T16:19:37;11.45;;;4.18;;
27706;SDS011;36332;51.384;0.040;2022-10-28T16:22:12;18.85;;;5.07;;
27706;SDS011;36332;51.384;0.040;2022-10-28T16:24:40;17.38;;;3.97;;
27706;SDS011;36332;51.384;0.040;2022-10-28T16:27:15;15.48;;;3.92;;
27706;SDS011;36332;51.384;0.040;2022-10-28T16:29:53;15.55;;;4.45;;
27706;SDS011;36332;51.384;0.040;2022-10-28T16:32:40;17.58;;;5.15;;
27706;SDS011;36332;51.384;0.040;2022-10-28T16:35:14;20.95;;;5.00;;
27706;SDS011;36332;51.384;0.040;2022-10-28T16:37:47;19.98;;;5.70;;
27706;SDS011;36332;51.384;0.040;2022-10-28T16:40:21;20.98;;;6.10;;
27706;SDS011;36332;51.384;0.040;2022-10-28T16:43:13;18.75;;;3.83;;
27706;SDS011;36332;51.384;0.040;2022-10-28T16:45:42;23.98;;;4.85;;
27706;SDS011;36332;51.384;0.040;2022-10-28T16:48:11;22.92;;;3.83;;
27706;SDS011;36332;51.384;0.040;2022-10-28T16:50:39;22.23;;;4.18;;
27706;SDS011;36332;51.384;0.040;2022-10-28T16:53:10;14.55;;;4.20;;
27706;SDS011;36332;51.384;0.040;2022-10-28T16:55:38;20.40;;;4.70;;
27706;SDS011;36332;51.384;0.040;2022-10-28T16:58:06;14.10;;;4.38;;
27706;SDS011;36332;51.384;0.040;2022-10-28T17:00:34;15.20;;;4.40;;
27706;SDS011;36332;51.384;0.040;2022-10-28T17:03:02;14.55;;;4.20;;
27706;SDS011;36332;51.384;0.040;2022-10-28T17:05:31;13.82;;;3.53;;
27706;SDS011;36332;51.384;0.040;2022-10-28T17:07:59;32.53;;;4.35;;
27706;SDS011;36332;51.384;0.040;2022-10-28T17:10:34;20.05;;;4.50;;
27706;SDS011;36332;51.384;0.040;2022-10-28T17:13:02;23.38;;;5.53;;
27706;SDS011;36332;51.384;0.040;2022-10-28T17:15:30;32.75;;;6.28;;
27706;SDS011;36332;51.384;0.040;2022-10-28T17:17:58;30.15;;;4.80;;
27706;SDS011;36332;51.384;0.040;2022-10-28T17:20:26;14.75;;;4.10;;
27706;SDS011;36332;51.384;0.040;2022-10-28T17:22:53;26.55;;;5.78;;
27706;SDS011;36332;51.384;0.040;2022-10-28T17:25:22;11.20;;;4.30;;
27706;SDS011;36332;51.384;0.040;2022-10-28T17:27:53;14.70;;;4.00;;
27706;SDS011;36332;51.384;0.040;2022-10-28T17:30:20;17.48;;;4.03;;
27706;SDS011;36332;51.384;0.040;2022-10-28T17:32:49;9.88;;;3.22;;
27706;SDS011;36332;51.384;0.040;2022-10-28T17:35:19;20.70;;;3.53;;
27706;SDS011;36332;51.384;0.040;2022-10-28T17:37:48;17.65;;;4.82;;
27706;SDS011;36332;51.384;0.040;2022-10-28T17:40:16;14.88;;;3.78;;
27706;SDS011;36332;51.384;0.040;2022-10-28T17:42:44;15.70;;;4.18;;
27706;SDS011;36332;51.384;0.040;2022-10-28T17:45:11;17.27;;;4.70;;
27706;SDS011;36332;51.384;0.040;2022-10-28T17:47:46;17.30;;;4.15;;
27706;SDS011;36332;51.384;0.040;2022-10-28T17:50:14;12.00;;;3.40;;
27706;SDS011;36332;51.384;0.040;2022-10-28T17:52:42;10.93;;;3.03;;
27706;SDS011;36332;51.384;0.040;2022-10-28T17:55:10;11.88;;;2.97;;
27706;SDS011;36332;51.384;0.040;2022-10-28T17:57:38;10.50;;;2.50;;
27706;SDS011;36332;51.384;0.040;2022-10-28T18:00:06;10.70;;;2.55;;
27706;SDS011;36332;51.384;0.040;2022-10-28T18:02:40;10.15;;;1.90;;
27706;SDS011;36332;51.384;0.040;2022-10-28T18:05:08;11.88;;;2.05;;
27706;SDS011;36332;51.384;0.040;2022-10-28T18:07:35;9.45;;;2.03;;
27706;SDS011;36332;51.384;0.040;2022-10-28T18:10:03;12.80;;;3.25;;
27706;SDS011;36332;51.384;0.040;2022-10-28T18:12:31;7.10;;;1.67;;